sensor_id;sensor_type;location;lat;lon;timestamp;P1;durP1;ratioP1;P2;durP2;ratioP2
9276;SDS011;4676;42.678;23.244;2023-12-14T00:00:05;11.23;;;3.07;;
9276;SDS011;4676;42.678;23.244;2023-12-14T00:02:33;3.80;;;3.50;;
9276;SDS011;4676;42.678;23.244;2023-12-14T00:05:00;3.73;;;3.53;;
9276;SDS011;4676;42.678;23.244;2023-12-14T00:07:27;5.67;;;3.10;;
9276;SDS011;4676;42.678;23.244;2023-12-14T00:09:53;3.97;;;3.67;;
9276;SDS011;4676;42.678;23.244;2023-12-14T00:12:22;3.67;;;3.40;;
9276;SDS011;4676;42.678;23.244;2023-12-14T00:14:48;6.50;;;3.53;;
9276;SDS011;4676;42.678;23.244;2023-12-14T00:17:15;1.97;;;1.90;;
9276;SDS011;4676;42.678;23.244;2023-12-14T00:19:42;3.03;;;2.93;;
9276;SDS011;4676;42.678;23.244;2023-12-14T00:22:08;3.87;;;3.63;;
9276;SDS011;4676;42.678;23.244;2023-12-14T00:24:35;2.23;;;2.10;;
9276;SDS011;4676;42.678;23.244;2023-12-14T00:27:02;7.53;;;3.73;;
9276;SDS011;4676;42.678;23.244;2023-12-14T00:29:30;5.40;;;2.37;;
9276;SDS011;4676;42.678;23.244;2023-12-14T00:31:57;7.33;;;3.43;;
9276;SDS011;4676;42.678;23.244;2023-12-14T00:34:23;1.67;;;1.57;;
9276;SDS011;4676;42.678;23.244;2023-12-14T00:36:50;2.93;;;2.77;;
9276;SDS011;4676;42.678;23.244;2023-12-14T00:39:17;5.83;;;3.47;;
9276;SDS011;4676;42.678;23.244;2023-12-14T00:41:43;2.10;;;1.63;;
9276;SDS011;4676;42.678;23.244;2023-12-14T00:44:10;2.53;;;2.37;;
9276;SDS011;4676;42.678;23.244;2023-12-14T00:46:38;2.90;;;2.43;;
9276;SDS011;4676;42.678;23.244;2023-12-14T00:49:06;2.53;;;2.43;;
9276;SDS011;4676;42.678;23.244;2023-12-14T00:51:33;3.13;;;3.03;;
9276;SDS011;4676;42.678;23.244;2023-12-14T00:54:00;1.63;;;1.63;;
9276;SDS011;4676;42.678;23.244;2023-12-14T00:56:26;3.33;;;3.07;;
9276;SDS011;4676;42.678;23.244;2023-12-14T00:58:53;3.23;;;2.03;;
9276;SDS011;4676;42.678;23.244;2023-12-14T01:01:19;3.57;;;3.27;;
9276;SDS011;4676;42.678;23.244;2023-12-14T01:03:47;1.83;;;1.73;;
9276;SDS011;4676;42.678;23.244;2023-12-14T01:06:14;3.90;;;2.13;;
9276;SDS011;4676;42.678;23.244;2023-12-14T01:08:41;8.47;;;2.53;;
9276;SDS011;4676;42.678;23.244;2023-12-14T01:11:07;2.27;;;2.17;;
9276;SDS011;4676;42.678;23.244;2023-12-14T01:13:34;3.43;;;3.23;;
9276;SDS011;4676;42.678;23.244;2023-12-14T01:16:01;2.63;;;2.43;;
9276;SDS011;4676;42.678;23.244;2023-12-14T01:18:28;4.27;;;2.90;;
9276;SDS011;4676;42.678;23.244;2023-12-14T01:20:56;4.83;;;4.43;;
9276;SDS011;4676;42.678;23.244;2023-12-14T01:23:23;2.50;;;2.40;;
9276;SDS011;4676;42.678;23.244;2023-12-14T01:25:49;2.30;;;2.20;;
9276;SDS011;4676;42.678;23.244;2023-12-14T01:28:16;3.73;;;2.90;;
9276;SDS011;4676;42.678;23.244;2023-12-14T01:30:43;3.97;;;2.53;;
9276;SDS011;4676;42.678;23.244;2023-12-14T01:33:09;4.63;;;4.00;;
9276;SDS011;4676;42.678;23.244;2023-12-14T01:35:36;1.67;;;1.67;;
9276;SDS011;4676;42.678;23.244;2023-12-14T01:38:04;3.40;;;3.20;;
9276;SDS011;4676;42.678;23.244;2023-12-14T01:40:31;7.43;;;2.60;;
9276;SDS011;4676;42.678;23.244;2023-12-14T01:43:06;3.00;;;2.77;;
9276;SDS011;4676;42.678;23.244;2023-12-14T01:45:34;3.23;;;2.53;;
9276;SDS011;4676;42.678;23.244;2023-12-14T01:48:01;1.43;;;1.43;;
9276;SDS011;4676;42.678;23.244;2023-12-14T01:50:27;3.37;;;2.80;;
9276;SDS011;4676;42.678;23.244;2023-12-14T01:52:54;4.73;;;3.30;;
9276;SDS011;4676;42.678;23.244;2023-12-14T01:55:22;2.27;;;1.80;;
9276;SDS011;4676;42.678;23.244;2023-12-14T01:57:50;4.10;;;2.53;;
9276;SDS011;4676;42.678;23.244;2023-12-14T02:00:19;4.83;;;4.40;;
9276;SDS011;4676;42.678;23.244;2023-12-14T02:02:53;28.87;;;5.70;;
9276;SDS011;4676;42.678;23.244;2023-12-14T02:05:19;6.07;;;2.30;;
9276;SDS011;4676;42.678;23.244;2023-12-14T02:07:47;8.60;;;2.83;;
9276;SDS011;4676;42.678;23.244;2023-12-14T02:10:15;2.10;;;2.00;;
9276;SDS011;4676;42.678;23.244;2023-12-14T02:12:43;2.73;;;2.53;;
9276;SDS011;4676;42.678;23.244;2023-12-14T02:15:09;8.00;;;2.77;;
9276;SDS011;4676;42.678;23.244;2023-12-14T02:17:36;2.90;;;2.30;;
9276;SDS011;4676;42.678;23.244;2023-12-14T02:20:03;3.83;;;2.77;;
9276;SDS011;4676;42.678;23.244;2023-12-14T02:22:35;1.93;;;1.83;;
9276;SDS011;4676;42.678;23.244;2023-12-14T02:25:15;1.73;;;1.70;;
9276;SDS011;4676;42.678;23.244;2023-12-14T02:27:42;1.83;;;1.70;;
9276;SDS011;4676;42.678;23.244;2023-12-14T02:30:09;1.90;;;1.87;;
9276;SDS011;4676;42.678;23.244;2023-12-14T02:32:36;2.30;;;2.20;;
9276;SDS011;4676;42.678;23.244;2023-12-14T02:35:03;2.90;;;2.70;;
9276;SDS011;4676;42.678;23.244;2023-12-14T02:37:31;2.33;;;2.20;;
9276;SDS011;4676;42.678;23.244;2023-12-14T02:39:59;1.37;;;1.37;;
9276;SDS011;4676;42.678;23.244;2023-12-14T02:42:26;1.53;;;1.43;;
9276;SDS011;4676;42.678;23.244;2023-12-14T02:44:53;2.40;;;2.20;;
9276;SDS011;4676;42.678;23.244;2023-12-14T02:47:20;2.10;;;1.73;;
9276;SDS011;4676;42.678;23.244;2023-12-14T02:49:46;1.57;;;1.57;;
9276;SDS011;4676;42.678;23.244;2023-12-14T02:52:13;2.27;;;2.07;;
9276;SDS011;4676;42.678;23.244;2023-12-14T02:54:40;2.10;;;1.63;;
9276;SDS011;4676;42.678;23.244;2023-12-14T02:57:08;14.10;;;1.57;;
9276;SDS011;4676;42.678;23.244;2023-12-14T02:59:34;1.23;;;1.23;;
9276;SDS011;4676;42.678;23.244;2023-12-14T03:02:01;2.50;;;2.30;;
9276;SDS011;4676;42.678;23.244;2023-12-14T03:04:28;1.23;;;1.23;;
9276;SDS011;4676;42.678;23.244;2023-12-14T03:06:54;1.93;;;1.83;;
9276;SDS011;4676;42.678;23.244;2023-12-14T03:09:21;2.47;;;2.07;;
9276;SDS011;4676;42.678;23.244;2023-12-14T03:11:48;2.30;;;1.53;;
9276;SDS011;4676;42.678;23.244;2023-12-14T03:14:16;2.13;;;2.03;;
9276;SDS011;4676;42.678;23.244;2023-12-14T03:16:43;2.63;;;1.47;;
9276;SDS011;4676;42.678;23.244;2023-12-14T03:19:09;3.20;;;2.90;;
9276;SDS011;4676;42.678;23.244;2023-12-14T03:21:36;1.70;;;1.60;;
9276;SDS011;4676;42.678;23.244;2023-12-14T03:24:03;2.33;;;2.23;;
9276;SDS011;4676;42.678;23.244;2023-12-14T03:26:30;3.43;;;2.27;;
9276;SDS011;4676;42.678;23.244;2023-12-14T03:28:56;2.93;;;2.73;;
9276;SDS011;4676;42.678;23.244;2023-12-14T03:31:24;4.27;;;2.47;;
9276;SDS011;4676;42.678;23.244;2023-12-14T03:33:51;1.67;;;1.63;;
9276;SDS011;4676;42.678;23.244;2023-12-14T03:36:18;3.10;;;2.77;;
9276;SDS011;4676;42.678;23.244;2023-12-14T03:38:44;1.93;;;1.83;;
9276;SDS011;4676;42.678;23.244;2023-12-14T03:41:12;5.30;;;2.73;;
9276;SDS011;4676;42.678;23.244;2023-12-14T03:43:39;2.20;;;2.10;;
9276;SDS011;4676;42.678;23.244;2023-12-14T03:46:05;4.00;;;2.63;;
9276;SDS011;4676;42.678;23.244;2023-12-14T03:48:33;1.73;;;1.67;;
9276;SDS011;4676;42.678;23.244;2023-12-14T03:51:01;4.57;;;2.03;;
9276;SDS011;4676;42.678;23.244;2023-12-14T03:53:29;6.27;;;1.90;;
9276;SDS011;4676;42.678;23.244;2023-12-14T03:55:57;5.03;;;1.83;;
9276;SDS011;4676;42.678;23.244;2023-12-14T03:58:24;1.30;;;1.30;;
9276;SDS011;4676;42.678;23.244;2023-12-14T04:00:51;6.40;;;1.40;;
9276;SDS011;4676;42.678;23.244;2023-12-14T04:03:18;2.30;;;1.87;;
9276;SDS011;4676;42.678;23.244;2023-12-14T04:05:46;0.97;;;0.97;;
9276;SDS011;4676;42.678;23.244;2023-12-14T04:08:12;2.73;;;1.97;;
9276;SDS011;4676;42.678;23.244;2023-12-14T04:10:39;2.13;;;1.23;;
9276;SDS011;4676;42.678;23.244;2023-12-14T04:13:05;2.67;;;1.73;;
9276;SDS011;4676;42.678;23.244;2023-12-14T04:15:32;5.00;;;1.77;;
9276;SDS011;4676;42.678;23.244;2023-12-14T04:17:59;3.50;;;1.93;;
9276;SDS011;4676;42.678;23.244;2023-12-14T04:20:25;1.83;;;1.67;;
9276;SDS011;4676;42.678;23.244;2023-12-14T04:22:53;2.23;;;1.93;;
9276;SDS011;4676;42.678;23.244;2023-12-14T04:25:21;3.37;;;2.00;;
9276;SDS011;4676;42.678;23.244;2023-12-14T04:27:47;1.20;;;1.20;;
9276;SDS011;4676;42.678;23.244;2023-12-14T04:30:14;1.60;;;1.50;;
9276;SDS011;4676;42.678;23.244;2023-12-14T04:32:41;2.73;;;2.10;;
9276;SDS011;4676;42.678;23.244;2023-12-14T04:37:43;3.50;;;2.47;;
9276;SDS011;4676;42.678;23.244;2023-12-14T04:40:12;2.53;;;2.33;;
9276;SDS011;4676;42.678;23.244;2023-12-14T04:42:38;5.13;;;3.03;;
9276;SDS011;4676;42.678;23.244;2023-12-14T04:45:05;3.27;;;2.33;;
9276;SDS011;4676;42.678;23.244;2023-12-14T04:47:34;2.57;;;2.40;;
9276;SDS011;4676;42.678;23.244;2023-12-14T04:50:00;2.27;;;1.43;;
9276;SDS011;4676;42.678;23.244;2023-12-14T04:52:27;1.13;;;1.13;;
9276;SDS011;4676;42.678;23.244;2023-12-14T04:54:54;2.73;;;2.50;;
9276;SDS011;4676;42.678;23.244;2023-12-14T04:57:22;2.47;;;2.27;;
9276;SDS011;4676;42.678;23.244;2023-12-14T04:59:48;3.07;;;1.67;;
9276;SDS011;4676;42.678;23.244;2023-12-14T05:02:15;4.47;;;2.67;;
9276;SDS011;4676;42.678;23.244;2023-12-14T05:04:42;2.80;;;2.37;;
9276;SDS011;4676;42.678;23.244;2023-12-14T05:07:08;2.97;;;2.67;;
9276;SDS011;4676;42.678;23.244;2023-12-14T05:09:35;1.30;;;1.30;;
9276;SDS011;4676;42.678;23.244;2023-12-14T05:12:03;1.50;;;1.40;;
9276;SDS011;4676;42.678;23.244;2023-12-14T05:14:31;1.60;;;1.60;;
9276;SDS011;4676;42.678;23.244;2023-12-14T05:16:58;2.10;;;2.00;;
9276;SDS011;4676;42.678;23.244;2023-12-14T05:19:25;2.47;;;2.27;;
9276;SDS011;4676;42.678;23.244;2023-12-14T05:21:51;1.50;;;1.40;;
9276;SDS011;4676;42.678;23.244;2023-12-14T05:24:19;1.73;;;1.63;;
9276;SDS011;4676;42.678;23.244;2023-12-14T05:26:46;3.10;;;2.90;;
9276;SDS011;4676;42.678;23.244;2023-12-14T05:29:12;7.23;;;2.63;;
9276;SDS011;4676;42.678;23.244;2023-12-14T05:31:40;12.37;;;3.27;;
9276;SDS011;4676;42.678;23.244;2023-12-14T05:34:07;5.40;;;3.70;;
9276;SDS011;4676;42.678;23.244;2023-12-14T05:36:34;3.37;;;2.90;;
9276;SDS011;4676;42.678;23.244;2023-12-14T05:39:00;7.23;;;3.43;;
9276;SDS011;4676;42.678;23.244;2023-12-14T05:41:28;8.33;;;4.37;;
9276;SDS011;4676;42.678;23.244;2023-12-14T05:44:00;5.07;;;3.83;;
9276;SDS011;4676;42.678;23.244;2023-12-14T05:46:26;6.13;;;5.23;;
9276;SDS011;4676;42.678;23.244;2023-12-14T05:48:54;6.17;;;4.63;;
9276;SDS011;4676;42.678;23.244;2023-12-14T05:51:27;8.17;;;4.20;;
9276;SDS011;4676;42.678;23.244;2023-12-14T05:53:55;4.10;;;3.70;;
9276;SDS011;4676;42.678;23.244;2023-12-14T05:56:22;14.90;;;4.70;;
9276;SDS011;4676;42.678;23.244;2023-12-14T05:58:49;6.47;;;3.77;;
9276;SDS011;4676;42.678;23.244;2023-12-14T06:01:16;10.20;;;5.00;;
9276;SDS011;4676;42.678;23.244;2023-12-14T06:03:43;6.87;;;5.67;;
9276;SDS011;4676;42.678;23.244;2023-12-14T06:06:11;8.20;;;5.07;;
9276;SDS011;4676;42.678;23.244;2023-12-14T06:08:39;7.77;;;3.93;;
9276;SDS011;4676;42.678;23.244;2023-12-14T06:11:06;13.03;;;5.13;;
9276;SDS011;4676;42.678;23.244;2023-12-14T06:13:33;2.63;;;2.43;;
9276;SDS011;4676;42.678;23.244;2023-12-14T06:15:59;2.80;;;2.57;;
9276;SDS011;4676;42.678;23.244;2023-12-14T06:18:26;2.60;;;2.40;;
9276;SDS011;4676;42.678;23.244;2023-12-14T06:20:53;1.80;;;1.80;;
9276;SDS011;4676;42.678;23.244;2023-12-14T06:23:21;2.57;;;2.37;;
9276;SDS011;4676;42.678;23.244;2023-12-14T06:25:48;2.47;;;2.27;;
9276;SDS011;4676;42.678;23.244;2023-12-14T06:28:14;3.17;;;3.00;;
9276;SDS011;4676;42.678;23.244;2023-12-14T06:30:41;3.80;;;3.00;;
9276;SDS011;4676;42.678;23.244;2023-12-14T06:33:08;4.30;;;2.67;;
9276;SDS011;4676;42.678;23.244;2023-12-14T06:35:35;4.60;;;1.43;;
9276;SDS011;4676;42.678;23.244;2023-12-14T06:38:02;2.27;;;1.90;;
9276;SDS011;4676;42.678;23.244;2023-12-14T06:40:30;1.97;;;1.87;;
9276;SDS011;4676;42.678;23.244;2023-12-14T06:42:56;2.13;;;2.00;;
9276;SDS011;4676;42.678;23.244;2023-12-14T06:45:23;2.37;;;2.13;;
9276;SDS011;4676;42.678;23.244;2023-12-14T06:47:50;3.63;;;3.33;;
9276;SDS011;4676;42.678;23.244;2023-12-14T06:50:16;3.20;;;3.10;;
9276;SDS011;4676;42.678;23.244;2023-12-14T06:52:43;3.43;;;2.90;;
9276;SDS011;4676;42.678;23.244;2023-12-14T06:55:10;1.57;;;1.47;;
9276;SDS011;4676;42.678;23.244;2023-12-14T06:57:38;2.17;;;1.93;;
9276;SDS011;4676;42.678;23.244;2023-12-14T07:00:05;1.93;;;1.83;;
9276;SDS011;4676;42.678;23.244;2023-12-14T07:02:33;1.97;;;1.87;;
9276;SDS011;4676;42.678;23.244;2023-12-14T07:05:00;2.50;;;2.33;;
9276;SDS011;4676;42.678;23.244;2023-12-14T07:07:26;6.40;;;3.60;;
9276;SDS011;4676;42.678;23.244;2023-12-14T07:09:53;4.20;;;3.83;;
9276;SDS011;4676;42.678;23.244;2023-12-14T07:12:20;5.23;;;4.30;;
9276;SDS011;4676;42.678;23.244;2023-12-14T07:14:48;8.90;;;4.17;;
9276;SDS011;4676;42.678;23.244;2023-12-14T07:17:14;3.73;;;3.43;;
9276;SDS011;4676;42.678;23.244;2023-12-14T07:19:41;8.50;;;3.83;;
9276;SDS011;4676;42.678;23.244;2023-12-14T07:22:08;4.40;;;2.67;;
9276;SDS011;4676;42.678;23.244;2023-12-14T07:24:34;3.20;;;3.00;;
9276;SDS011;4676;42.678;23.244;2023-12-14T07:27:01;2.80;;;2.57;;
9276;SDS011;4676;42.678;23.244;2023-12-14T07:29:28;4.00;;;2.37;;
9276;SDS011;4676;42.678;23.244;2023-12-14T07:31:56;7.87;;;3.73;;
9276;SDS011;4676;42.678;23.244;2023-12-14T07:34:22;6.43;;;3.63;;
9276;SDS011;4676;42.678;23.244;2023-12-14T07:36:49;3.60;;;2.47;;
9276;SDS011;4676;42.678;23.244;2023-12-14T07:39:16;2.83;;;2.73;;
9276;SDS011;4676;42.678;23.244;2023-12-14T07:41:44;2.27;;;2.13;;
9276;SDS011;4676;42.678;23.244;2023-12-14T07:44:10;3.97;;;2.83;;
9276;SDS011;4676;42.678;23.244;2023-12-14T07:46:37;4.13;;;2.13;;
9276;SDS011;4676;42.678;23.244;2023-12-14T07:49:07;2.10;;;1.97;;
9276;SDS011;4676;42.678;23.244;2023-12-14T07:51:34;2.13;;;2.00;;
9276;SDS011;4676;42.678;23.244;2023-12-14T07:54:01;2.87;;;2.60;;
9276;SDS011;4676;42.678;23.244;2023-12-14T07:56:28;2.57;;;2.47;;
9276;SDS011;4676;42.678;23.244;2023-12-14T07:58:55;4.13;;;3.40;;
9276;SDS011;4676;42.678;23.244;2023-12-14T08:01:22;3.80;;;2.33;;
9276;SDS011;4676;42.678;23.244;2023-12-14T08:03:48;2.70;;;2.23;;
9276;SDS011;4676;42.678;23.244;2023-12-14T08:06:16;6.67;;;2.20;;
9276;SDS011;4676;42.678;23.244;2023-12-14T08:08:43;2.47;;;2.27;;
9276;SDS011;4676;42.678;23.244;2023-12-14T08:11:10;3.20;;;2.47;;
9276;SDS011;4676;42.678;23.244;2023-12-14T08:13:36;1.83;;;1.73;;
9276;SDS011;4676;42.678;23.244;2023-12-14T08:16:03;2.60;;;2.37;;
9276;SDS011;4676;42.678;23.244;2023-12-14T08:18:30;2.60;;;2.43;;
9276;SDS011;4676;42.678;23.244;2023-12-14T08:20:57;3.17;;;2.43;;
9276;SDS011;4676;42.678;23.244;2023-12-14T08:23:25;2.60;;;2.50;;
9276;SDS011;4676;42.678;23.244;2023-12-14T08:25:52;1.87;;;1.30;;
9276;SDS011;4676;42.678;23.244;2023-12-14T08:28:21;4.10;;;2.77;;
9276;SDS011;4676;42.678;23.244;2023-12-14T08:30:48;15.07;;;3.00;;
9276;SDS011;4676;42.678;23.244;2023-12-14T08:33:15;5.90;;;2.60;;
9276;SDS011;4676;42.678;23.244;2023-12-14T08:35:42;2.00;;;1.90;;
9276;SDS011;4676;42.678;23.244;2023-12-14T08:38:09;5.20;;;2.63;;
9276;SDS011;4676;42.678;23.244;2023-12-14T08:40:37;2.40;;;2.23;;
9276;SDS011;4676;42.678;23.244;2023-12-14T08:43:04;3.83;;;2.30;;
9276;SDS011;4676;42.678;23.244;2023-12-14T08:45:30;2.83;;;1.80;;
9276;SDS011;4676;42.678;23.244;2023-12-14T08:47:57;2.37;;;2.13;;
9276;SDS011;4676;42.678;23.244;2023-12-14T08:50:24;3.83;;;2.30;;
9276;SDS011;4676;42.678;23.244;2023-12-14T08:52:51;4.17;;;2.70;;
9276;SDS011;4676;42.678;23.244;2023-12-14T08:55:18;2.53;;;2.33;;
9276;SDS011;4676;42.678;23.244;2023-12-14T08:57:46;2.50;;;2.27;;
9276;SDS011;4676;42.678;23.244;2023-12-14T09:00:13;3.17;;;2.37;;
9276;SDS011;4676;42.678;23.244;2023-12-14T09:02:41;2.50;;;1.90;;
9276;SDS011;4676;42.678;23.244;2023-12-14T09:05:09;11.63;;;2.70;;
9276;SDS011;4676;42.678;23.244;2023-12-14T09:07:35;3.07;;;2.50;;
9276;SDS011;4676;42.678;23.244;2023-12-14T09:10:02;2.67;;;2.47;;
9276;SDS011;4676;42.678;23.244;2023-12-14T09:12:29;3.87;;;2.50;;
9276;SDS011;4676;42.678;23.244;2023-12-14T09:14:57;8.63;;;3.00;;
9276;SDS011;4676;42.678;23.244;2023-12-14T09:17:24;3.97;;;2.50;;
9276;SDS011;4676;42.678;23.244;2023-12-14T09:19:51;3.73;;;2.47;;
9276;SDS011;4676;42.678;23.244;2023-12-14T09:22:18;2.57;;;2.03;;
9276;SDS011;4676;42.678;23.244;2023-12-14T09:24:44;3.50;;;2.10;;
9276;SDS011;4676;42.678;23.244;2023-12-14T09:27:11;2.30;;;2.10;;
9276;SDS011;4676;42.678;23.244;2023-12-14T09:29:37;2.87;;;1.93;;
9276;SDS011;4676;42.678;23.244;2023-12-14T09:32:06;1.90;;;1.80;;
9276;SDS011;4676;42.678;23.244;2023-12-14T09:34:36;2.33;;;1.93;;
9276;SDS011;4676;42.678;23.244;2023-12-14T09:37:02;1.73;;;1.63;;
9276;SDS011;4676;42.678;23.244;2023-12-14T09:39:29;1.53;;;1.53;;
9276;SDS011;4676;42.678;23.244;2023-12-14T09:42:01;1.97;;;1.37;;
9276;SDS011;4676;42.678;23.244;2023-12-14T09:44:29;1.80;;;1.40;;
9276;SDS011;4676;42.678;23.244;2023-12-14T09:46:56;1.60;;;1.47;;
9276;SDS011;4676;42.678;23.244;2023-12-14T09:49:26;1.70;;;1.60;;
9276;SDS011;4676;42.678;23.244;2023-12-14T09:51:55;2.43;;;1.30;;
9276;SDS011;4676;42.678;23.244;2023-12-14T09:54:22;1.63;;;1.53;;
9276;SDS011;4676;42.678;23.244;2023-12-14T09:56:49;3.00;;;2.00;;
9276;SDS011;4676;42.678;23.244;2023-12-14T09:59:17;8.07;;;1.80;;
9276;SDS011;4676;42.678;23.244;2023-12-14T10:01:44;7.07;;;2.00;;
9276;SDS011;4676;42.678;23.244;2023-12-14T10:04:12;4.27;;;1.47;;
9276;SDS011;4676;42.678;23.244;2023-12-14T10:06:41;2.90;;;1.47;;
9276;SDS011;4676;42.678;23.244;2023-12-14T10:09:09;2.50;;;1.97;;
9276;SDS011;4676;42.678;23.244;2023-12-14T10:11:38;6.80;;;2.57;;
9276;SDS011;4676;42.678;23.244;2023-12-14T10:14:17;2.97;;;2.67;;
9276;SDS011;4676;42.678;23.244;2023-12-14T10:16:46;9.03;;;2.87;;
9276;SDS011;4676;42.678;23.244;2023-12-14T10:19:13;1.93;;;1.73;;
9276;SDS011;4676;42.678;23.244;2023-12-14T10:21:42;2.00;;;1.80;;
9276;SDS011;4676;42.678;23.244;2023-12-14T10:24:08;2.17;;;1.40;;
9276;SDS011;4676;42.678;23.244;2023-12-14T10:26:36;1.83;;;1.70;;
9276;SDS011;4676;42.678;23.244;2023-12-14T10:29:05;6.47;;;1.93;;
9276;SDS011;4676;42.678;23.244;2023-12-14T10:31:34;2.37;;;2.27;;
9276;SDS011;4676;42.678;23.244;2023-12-14T10:34:03;3.23;;;2.87;;
9276;SDS011;4676;42.678;23.244;2023-12-14T10:36:30;2.20;;;2.10;;
9276;SDS011;4676;42.678;23.244;2023-12-14T10:38:59;2.70;;;2.50;;
9276;SDS011;4676;42.678;23.244;2023-12-14T10:41:27;3.57;;;3.03;;
9276;SDS011;4676;42.678;23.244;2023-12-14T10:43:58;2.67;;;2.47;;
9276;SDS011;4676;42.678;23.244;2023-12-14T10:46:26;3.20;;;2.80;;
9276;SDS011;4676;42.678;23.244;2023-12-14T10:48:54;2.40;;;2.23;;
9276;SDS011;4676;42.678;23.244;2023-12-14T10:51:21;5.47;;;3.30;;
9276;SDS011;4676;42.678;23.244;2023-12-14T10:53:52;2.90;;;2.30;;
9276;SDS011;4676;42.678;23.244;2023-12-14T10:56:20;1.80;;;1.70;;
9276;SDS011;4676;42.678;23.244;2023-12-14T10:58:48;3.03;;;1.40;;
9276;SDS011;4676;42.678;23.244;2023-12-14T11:01:18;5.10;;;1.70;;
9276;SDS011;4676;42.678;23.244;2023-12-14T11:03:46;3.40;;;1.70;;
9276;SDS011;4676;42.678;23.244;2023-12-14T11:06:21;2.40;;;1.10;;
9276;SDS011;4676;42.678;23.244;2023-12-14T11:08:56;1.03;;;1.03;;
9276;SDS011;4676;42.678;23.244;2023-12-14T11:11:28;3.03;;;2.10;;
9276;SDS011;4676;42.678;23.244;2023-12-14T11:13:55;1.90;;;1.80;;
9276;SDS011;4676;42.678;23.244;2023-12-14T11:16:22;0.80;;;0.80;;
9276;SDS011;4676;42.678;23.244;2023-12-14T11:24:53;1.20;;;1.20;;
9276;SDS011;4676;42.678;23.244;2023-12-14T11:27:26;1.30;;;0.77;;
9276;SDS011;4676;42.678;23.244;2023-12-14T11:29:54;0.40;;;0.40;;
9276;SDS011;4676;42.678;23.244;2023-12-14T11:32:22;0.70;;;0.70;;
9276;SDS011;4676;42.678;23.244;2023-12-14T11:34:51;3.47;;;1.10;;
9276;SDS011;4676;42.678;23.244;2023-12-14T11:37:17;1.53;;;0.70;;
9276;SDS011;4676;42.678;23.244;2023-12-14T11:39:45;0.63;;;0.63;;
9276;SDS011;4676;42.678;23.244;2023-12-14T11:42:16;0.50;;;0.50;;
9276;SDS011;4676;42.678;23.244;2023-12-14T11:44:45;0.70;;;0.70;;
9276;SDS011;4676;42.678;23.244;2023-12-14T11:47:13;0.50;;;0.50;;
9276;SDS011;4676;42.678;23.244;2023-12-14T11:49:40;0.50;;;0.50;;
9276;SDS011;4676;42.678;23.244;2023-12-14T11:52:07;0.80;;;0.80;;
9276;SDS011;4676;42.678;23.244;2023-12-14T11:54:34;1.07;;;0.60;;
9276;SDS011;4676;42.678;23.244;2023-12-14T11:57:01;0.20;;;0.20;;
9276;SDS011;4676;42.678;23.244;2023-12-14T11:59:28;0.53;;;0.53;;
9276;SDS011;4676;42.678;23.244;2023-12-14T12:01:56;0.30;;;0.30;;
9276;SDS011;4676;42.678;23.244;2023-12-14T12:04:24;0.40;;;0.40;;
9276;SDS011;4676;42.678;23.244;2023-12-14T12:06:58;0.30;;;0.30;;
9276;SDS011;4676;42.678;23.244;2023-12-14T12:09:36;0.50;;;0.50;;
9276;SDS011;4676;42.678;23.244;2023-12-14T12:12:08;0.60;;;0.60;;
9276;SDS011;4676;42.678;23.244;2023-12-14T12:14:36;0.50;;;0.50;;
9276;SDS011;4676;42.678;23.244;2023-12-14T12:17:04;1.87;;;0.70;;
9276;SDS011;4676;42.678;23.244;2023-12-14T12:19:32;0.60;;;0.60;;
9276;SDS011;4676;42.678;23.244;2023-12-14T12:21:59;0.60;;;0.60;;
9276;SDS011;4676;42.678;23.244;2023-12-14T12:24:26;1.73;;;1.13;;
9276;SDS011;4676;42.678;23.244;2023-12-14T12:26:53;2.90;;;0.50;;
9276;SDS011;4676;42.678;23.244;2023-12-14T12:29:19;0.50;;;0.50;;
9276;SDS011;4676;42.678;23.244;2023-12-14T12:31:46;0.90;;;0.90;;
9276;SDS011;4676;42.678;23.244;2023-12-14T12:34:15;0.70;;;0.70;;
9276;SDS011;4676;42.678;23.244;2023-12-14T12:36:41;0.53;;;0.53;;
9276;SDS011;4676;42.678;23.244;2023-12-14T12:39:08;1.83;;;1.43;;
9276;SDS011;4676;42.678;23.244;2023-12-14T12:41:35;0.70;;;0.70;;
9276;SDS011;4676;42.678;23.244;2023-12-14T12:44:02;0.30;;;0.30;;
9276;SDS011;4676;42.678;23.244;2023-12-14T12:46:32;0.37;;;0.37;;
9276;SDS011;4676;42.678;23.244;2023-12-14T12:48:59;0.60;;;0.60;;
9276;SDS011;4676;42.678;23.244;2023-12-14T12:51:28;0.53;;;0.53;;
9276;SDS011;4676;42.678;23.244;2023-12-14T12:53:55;0.60;;;0.60;;
9276;SDS011;4676;42.678;23.244;2023-12-14T12:56:23;0.37;;;0.37;;
9276;SDS011;4676;42.678;23.244;2023-12-14T12:58:57;0.30;;;0.30;;
9276;SDS011;4676;42.678;23.244;2023-12-14T13:01:23;0.50;;;0.50;;
9276;SDS011;4676;42.678;23.244;2023-12-14T13:03:52;0.60;;;0.60;;
9276;SDS011;4676;42.678;23.244;2023-12-14T13:06:21;0.40;;;0.40;;
9276;SDS011;4676;42.678;23.244;2023-12-14T13:08:50;0.67;;;0.67;;
9276;SDS011;4676;42.678;23.244;2023-12-14T13:11:17;0.70;;;0.70;;
9276;SDS011;4676;42.678;23.244;2023-12-14T13:13:43;0.50;;;0.50;;
9276;SDS011;4676;42.678;23.244;2023-12-14T13:16:09;0.93;;;0.93;;
9276;SDS011;4676;42.678;23.244;2023-12-14T13:18:38;0.43;;;0.43;;
9276;SDS011;4676;42.678;23.244;2023-12-14T13:21:05;0.50;;;0.50;;
9276;SDS011;4676;42.678;23.244;2023-12-14T13:23:32;0.37;;;0.37;;
9276;SDS011;4676;42.678;23.244;2023-12-14T13:26:00;0.57;;;0.57;;
9276;SDS011;4676;42.678;23.244;2023-12-14T13:28:27;0.53;;;0.53;;
9276;SDS011;4676;42.678;23.244;2023-12-14T13:30:53;0.80;;;0.80;;
9276;SDS011;4676;42.678;23.244;2023-12-14T13:33:20;4.73;;;2.47;;
9276;SDS011;4676;42.678;23.244;2023-12-14T13:35:47;1.00;;;1.00;;
9276;SDS011;4676;42.678;23.244;2023-12-14T13:38:13;0.50;;;0.50;;
9276;SDS011;4676;42.678;23.244;2023-12-14T13:40:41;0.40;;;0.40;;
9276;SDS011;4676;42.678;23.244;2023-12-14T13:43:09;0.43;;;0.43;;
9276;SDS011;4676;42.678;23.244;2023-12-14T13:48:03;0.30;;;0.30;;
9276;SDS011;4676;42.678;23.244;2023-12-14T13:50:31;0.30;;;0.30;;
9276;SDS011;4676;42.678;23.244;2023-12-14T13:52:58;0.60;;;0.60;;
9276;SDS011;4676;42.678;23.244;2023-12-14T13:55:24;0.43;;;0.43;;
9276;SDS011;4676;42.678;23.244;2023-12-14T13:57:51;0.90;;;0.80;;
9276;SDS011;4676;42.678;23.244;2023-12-14T14:00:19;0.80;;;0.80;;
9276;SDS011;4676;42.678;23.244;2023-12-14T14:02:46;0.40;;;0.40;;
9276;SDS011;4676;42.678;23.244;2023-12-14T14:05:13;0.50;;;0.50;;
9276;SDS011;4676;42.678;23.244;2023-12-14T14:07:40;0.57;;;0.57;;
9276;SDS011;4676;42.678;23.244;2023-12-14T14:10:07;0.63;;;0.57;;
9276;SDS011;4676;42.678;23.244;2023-12-14T14:12:35;1.60;;;0.87;;
9276;SDS011;4676;42.678;23.244;2023-12-14T14:15:01;0.40;;;0.40;;
9276;SDS011;4676;42.678;23.244;2023-12-14T14:17:30;1.03;;;0.93;;
9276;SDS011;4676;42.678;23.244;2023-12-14T14:19:56;1.53;;;0.77;;
9276;SDS011;4676;42.678;23.244;2023-12-14T14:22:23;3.57;;;1.67;;
9276;SDS011;4676;42.678;23.244;2023-12-14T14:24:49;0.90;;;0.90;;
9276;SDS011;4676;42.678;23.244;2023-12-14T14:27:16;0.70;;;0.70;;
9276;SDS011;4676;42.678;23.244;2023-12-14T14:29:43;0.50;;;0.50;;
9276;SDS011;4676;42.678;23.244;2023-12-14T14:32:09;0.80;;;0.80;;
9276;SDS011;4676;42.678;23.244;2023-12-14T14:34:37;0.67;;;0.67;;
9276;SDS011;4676;42.678;23.244;2023-12-14T14:37:04;0.63;;;0.63;;
9276;SDS011;4676;42.678;23.244;2023-12-14T14:39:32;0.77;;;0.77;;
9276;SDS011;4676;42.678;23.244;2023-12-14T14:41:58;2.97;;;0.90;;
9276;SDS011;4676;42.678;23.244;2023-12-14T14:44:25;1.50;;;1.40;;
9276;SDS011;4676;42.678;23.244;2023-12-14T14:46:52;2.63;;;0.90;;
9276;SDS011;4676;42.678;23.244;2023-12-14T14:49:18;0.70;;;0.70;;
9276;SDS011;4676;42.678;23.244;2023-12-14T14:51:46;0.90;;;0.90;;
9276;SDS011;4676;42.678;23.244;2023-12-14T14:54:13;1.37;;;1.30;;
9276;SDS011;4676;42.678;23.244;2023-12-14T14:56:40;6.50;;;4.40;;
9276;SDS011;4676;42.678;23.244;2023-12-14T14:59:08;2.87;;;2.67;;
9276;SDS011;4676;42.678;23.244;2023-12-14T15:01:36;1.10;;;1.10;;
9276;SDS011;4676;42.678;23.244;2023-12-14T15:04:03;32.90;;;12.07;;
9276;SDS011;4676;42.678;23.244;2023-12-14T15:06:29;17.47;;;8.10;;
9276;SDS011;4676;42.678;23.244;2023-12-14T15:08:57;3.07;;;2.87;;
9276;SDS011;4676;42.678;23.244;2023-12-14T15:11:24;11.07;;;6.23;;